TAA523 YMML-YMLT
Flight info
| Callsign | TAA523 |
|---|---|
| Flight time | 0h 46m |
| Altitude | 31000 |
| Route | ML H169 IRSOM W105 LT |
| Aircraft | B722/M-SDFGRWY/S |
Departure
| Time | 2026-04-23 09:23 |
|---|---|
| Airport | Melbourne Airport (YMML) |
Arrival
| Time | 2026-04-23 10:09 |
|---|---|
| Airport | Launceston Airport (YMLT) |
| Time | Latitude | Longitude | Altitude | Speed | Heading |
|---|---|---|---|---|---|
| 2026-04-23 09:04 | -37.68712 | 144.84946 | 339 ft | 0 kts | 81° |
| 2026-04-23 09:09 | -37.68714 | 144.84926 | 338 ft | 2 kts | 81° |
| 2026-04-23 09:09 | -37.68717 | 144.84906 | 334 ft | 2 kts | 64° |
| 2026-04-23 09:09 | -37.68730 | 144.84899 | 334 ft | 0 kts | 349° |
| 2026-04-23 09:17 | -37.68710 | 144.84894 | 335 ft | 11 kts | 349° |
| 2026-04-23 09:17 | -37.68611 | 144.84882 | 336 ft | 18 kts | 359° |
| 2026-04-23 09:18 | -37.68569 | 144.84886 | 336 ft | 0 kts | 12° |
| 2026-04-23 09:18 | -37.68552 | 144.84890 | 335 ft | 12 kts | 9° |
| 2026-04-23 09:18 | -37.68446 | 144.84902 | 354 ft | 14 kts | 342° |
| 2026-04-23 09:18 | -37.68401 | 144.84820 | 355 ft | 11 kts | 274° |
| 2026-04-23 09:19 | -37.68399 | 144.84718 | 348 ft | 13 kts | 271° |
| 2026-04-23 09:19 | -37.68391 | 144.84600 | 351 ft | 14 kts | 282° |
| 2026-04-23 09:19 | -37.68389 | 144.84469 | 351 ft | 16 kts | 251° |
| 2026-04-23 09:19 | -37.68470 | 144.84366 | 348 ft | 10 kts | 213° |
| 2026-04-23 09:20 | -37.68472 | 144.84364 | 347 ft | 0 kts | 213° |
| 2026-04-23 09:21 | -37.68475 | 144.84361 | 346 ft | 1 kts | 213° |
| 2026-04-23 09:21 | -37.68495 | 144.84344 | 348 ft | 6 kts | 213° |
| 2026-04-23 09:21 | -37.68535 | 144.84298 | 348 ft | 9 kts | 232° |
| 2026-04-23 09:21 | -37.68561 | 144.84204 | 352 ft | 14 kts | 261° |
| 2026-04-23 09:22 | -37.68541 | 144.84100 | 351 ft | 12 kts | 331° |
| 2026-04-23 09:22 | -37.68471 | 144.84078 | 352 ft | 0 kts | 351° |
| 2026-04-23 09:22 | -37.68457 | 144.84076 | 354 ft | 12 kts | 351° |
| 2026-04-23 09:22 | -37.68146 | 144.84018 | 356 ft | 81 kts | 351° |
| 2026-04-23 09:23 | -37.67375 | 144.83873 | 374 ft | 137 kts | 352° |
| 2026-04-23 09:23 | -37.66340 | 144.83689 | 587 ft | 161 kts | 355° |
| 2026-04-23 09:23 | -37.65187 | 144.83504 | 1090 ft | 161 kts | 354° |
| 2026-04-23 09:23 | -37.64146 | 144.83265 | 1879 ft | 150 kts | 350° |
| 2026-04-23 09:24 | -37.63060 | 144.83032 | 2129 ft | 176 kts | 352° |
| 2026-04-23 09:24 | -37.61766 | 144.82796 | 2321 ft | 198 kts | 352° |
| 2026-04-23 09:24 | -37.60277 | 144.82515 | 2533 ft | 238 kts | 353° |
| 2026-04-23 09:24 | -37.58644 | 144.82690 | 3746 ft | 232 kts | 19° |
| 2026-04-23 09:25 | -37.57146 | 144.83448 | 5214 ft | 237 kts | 26° |
| 2026-04-23 09:25 | -37.55632 | 144.84390 | 6384 ft | 245 kts | 29° |
| 2026-04-23 09:25 | -37.54108 | 144.85363 | 7649 ft | 248 kts | 28° |
| 2026-04-23 09:25 | -37.52515 | 144.86338 | 8800 ft | 255 kts | 27° |
| 2026-04-23 09:26 | -37.50922 | 144.87306 | 9921 ft | 261 kts | 27° |
| 2026-04-23 09:26 | -37.49270 | 144.88316 | 10973 ft | 267 kts | 27° |
| 2026-04-23 09:26 | -37.47632 | 144.89448 | 11980 ft | 271 kts | 39° |
| 2026-04-23 09:26 | -37.46360 | 144.91205 | 12973 ft | 275 kts | 59° |
| 2026-04-23 09:27 | -37.45621 | 144.93422 | 13979 ft | 278 kts | 79° |
| 2026-04-23 09:27 | -37.45534 | 144.95859 | 14862 ft | 282 kts | 99° |
| 2026-04-23 09:27 | -37.46137 | 144.98203 | 15730 ft | 285 kts | 120° |
| 2026-04-23 09:27 | -37.47375 | 145.00157 | 16618 ft | 288 kts | 141° |
| 2026-04-23 09:28 | -37.49110 | 145.01433 | 17495 ft | 291 kts | 162° |
| 2026-04-23 09:28 | -37.51103 | 145.01910 | 18388 ft | 294 kts | 176° |
| 2026-04-23 09:28 | -37.53164 | 145.01923 | 19200 ft | 297 kts | 183° |
| 2026-04-23 09:28 | -37.55243 | 145.01720 | 19873 ft | 308 kts | 185° |
| 2026-04-23 09:29 | -37.57475 | 145.01454 | 20012 ft | 336 kts | 185° |
| 2026-04-23 09:29 | -37.59897 | 145.01219 | 20245 ft | 359 kts | 184° |
| 2026-04-23 09:29 | -37.62385 | 145.01009 | 21312 ft | 355 kts | 184° |
| 2026-04-23 09:29 | -37.64859 | 145.00777 | 22214 ft | 360 kts | 184° |
| 2026-04-23 09:30 | -37.67382 | 145.00529 | 22996 ft | 366 kts | 184° |
| 2026-04-23 09:30 | -37.69932 | 145.00289 | 23906 ft | 370 kts | 184° |
| 2026-04-23 09:30 | -37.72513 | 145.00049 | 24649 ft | 373 kts | 184° |
| 2026-04-23 09:30 | -37.75115 | 144.99803 | 25302 ft | 380 kts | 184° |
| 2026-04-23 09:31 | -37.77775 | 144.99552 | 26059 ft | 379 kts | 184° |
| 2026-04-23 09:31 | -37.80364 | 144.99307 | 27021 ft | 379 kts | 184° |
| 2026-04-23 09:31 | -37.83022 | 144.99054 | 27638 ft | 386 kts | 184° |
| 2026-04-23 09:31 | -37.85708 | 144.98801 | 28441 ft | 388 kts | 184° |
| 2026-04-23 09:32 | -37.88413 | 144.98546 | 29212 ft | 392 kts | 184° |
| 2026-04-23 09:32 | -37.91146 | 144.98285 | 29951 ft | 396 kts | 184° |
| 2026-04-23 09:32 | -37.93904 | 144.98025 | 30659 ft | 399 kts | 184° |
| 2026-04-23 09:32 | -37.96686 | 144.97872 | 31284 ft | 403 kts | 178° |
| 2026-04-23 09:33 | -37.99510 | 144.98456 | 31351 ft | 422 kts | 166° |
| 2026-04-23 09:33 | -38.02383 | 144.99584 | 31355 ft | 443 kts | 161° |
| 2026-04-23 09:33 | -38.05319 | 145.01026 | 31367 ft | 462 kts | 160° |
| 2026-04-23 09:33 | -38.08374 | 145.02510 | 31355 ft | 474 kts | 162° |
| 2026-04-23 09:34 | -38.11367 | 145.03744 | 33210 ft | 412 kts | 164° |
| 2026-04-23 09:34 | -38.13643 | 145.04734 | 37669 ft | 278 kts | 163° |
| 2026-04-23 09:34 | -38.15348 | 145.05548 | 39787 ft | 269 kts | 164° |
| 2026-04-23 09:34 | -38.17280 | 145.06389 | 38334 ft | 322 kts | 165° |
| 2026-04-23 09:35 | -38.19489 | 145.07325 | 37851 ft | 346 kts | 163° |
| 2026-04-23 09:35 | -38.21778 | 145.08365 | 38042 ft | 351 kts | 163° |
| 2026-04-23 09:35 | -38.24106 | 145.09420 | 38089 ft | 362 kts | 163° |
| 2026-04-23 09:35 | -38.26545 | 145.10497 | 37925 ft | 379 kts | 163° |
| 2026-04-23 09:36 | -38.29060 | 145.11613 | 37739 ft | 396 kts | 163° |
| 2026-04-23 09:36 | -38.30841 | 145.12412 | 37605 ft | 408 kts | 163° |
| 2026-04-23 09:36 | -38.34484 | 145.14046 | 37336 ft | 431 kts | 163° |
| 2026-04-23 09:36 | -38.36417 | 145.14910 | 37196 ft | 442 kts | 163° |
| 2026-04-23 09:37 | -38.40333 | 145.16662 | 36907 ft | 454 kts | 163° |
| 2026-04-23 09:37 | -38.43316 | 145.18004 | 36666 ft | 455 kts | 162° |
| 2026-04-23 09:37 | -38.46305 | 145.19346 | 36421 ft | 456 kts | 163° |
| 2026-04-23 09:37 | -38.49303 | 145.20689 | 36179 ft | 457 kts | 163° |
| 2026-04-23 09:38 | -38.52312 | 145.22037 | 35933 ft | 458 kts | 163° |
| 2026-04-23 09:38 | -38.54347 | 145.22935 | 35767 ft | 459 kts | 163° |
| 2026-04-23 09:38 | -38.57370 | 145.24247 | 35526 ft | 460 kts | 163° |
| 2026-04-23 09:38 | -38.60395 | 145.25572 | 35288 ft | 461 kts | 163° |
| 2026-04-23 09:39 | -38.63432 | 145.26918 | 35064 ft | 460 kts | 163° |
| 2026-04-23 09:39 | -38.66460 | 145.28256 | 34829 ft | 462 kts | 163° |
| 2026-04-23 09:39 | -38.69462 | 145.29573 | 34604 ft | 463 kts | 163° |
| 2026-04-23 09:39 | -38.72514 | 145.30921 | 34365 ft | 464 kts | 163° |
| 2026-04-23 09:40 | -38.75568 | 145.32273 | 34102 ft | 465 kts | 163° |
| 2026-04-23 09:40 | -38.78633 | 145.33628 | 33839 ft | 466 kts | 163° |
| 2026-04-23 09:40 | -38.81705 | 145.34987 | 33576 ft | 467 kts | 162° |
| 2026-04-23 09:40 | -38.84782 | 145.36352 | 33316 ft | 469 kts | 162° |
| 2026-04-23 09:41 | -38.87875 | 145.37722 | 33063 ft | 470 kts | 162° |
| 2026-04-23 09:41 | -38.90970 | 145.39096 | 32809 ft | 472 kts | 162° |
| 2026-04-23 09:41 | -38.94081 | 145.40479 | 32555 ft | 473 kts | 162° |
| 2026-04-23 09:41 | -38.97197 | 145.41864 | 32304 ft | 475 kts | 162° |
| 2026-04-23 09:42 | -39.00321 | 145.43256 | 32055 ft | 476 kts | 162° |
| 2026-04-23 09:42 | -39.03457 | 145.44652 | 31808 ft | 477 kts | 162° |
| 2026-04-23 09:42 | -39.06595 | 145.46052 | 31560 ft | 478 kts | 162° |
| 2026-04-23 09:42 | -39.09736 | 145.47455 | 31359 ft | 478 kts | 162° |
| 2026-04-23 09:43 | -39.12879 | 145.48858 | 31375 ft | 478 kts | 162° |
| 2026-04-23 09:43 | -39.19166 | 145.51673 | 31365 ft | 478 kts | 162° |
| 2026-04-23 09:44 | -39.25401 | 145.54467 | 31364 ft | 477 kts | 162° |
| 2026-04-23 09:44 | -39.31679 | 145.57285 | 31362 ft | 477 kts | 162° |
| 2026-04-23 09:45 | -39.37953 | 145.60111 | 31364 ft | 477 kts | 162° |
| 2026-04-23 09:45 | -39.44229 | 145.62940 | 31365 ft | 477 kts | 162° |
| 2026-04-23 09:46 | -39.50502 | 145.65773 | 31365 ft | 477 kts | 162° |
| 2026-04-23 09:46 | -39.56779 | 145.68616 | 31368 ft | 478 kts | 162° |
| 2026-04-23 09:47 | -39.63066 | 145.71464 | 31368 ft | 478 kts | 162° |
| 2026-04-23 09:47 | -39.69329 | 145.74310 | 31369 ft | 476 kts | 162° |
| 2026-04-23 09:48 | -39.75585 | 145.77160 | 31372 ft | 476 kts | 162° |
| 2026-04-23 09:48 | -39.81812 | 145.79997 | 31368 ft | 479 kts | 162° |
| 2026-04-23 09:49 | -39.88085 | 145.82868 | 31368 ft | 477 kts | 162° |
| 2026-04-23 09:49 | -39.94354 | 145.85736 | 31370 ft | 477 kts | 162° |
| 2026-04-23 09:50 | -40.00614 | 145.88607 | 31367 ft | 478 kts | 162° |
| 2026-04-23 09:50 | -40.06901 | 145.91520 | 31386 ft | 478 kts | 162° |
| 2026-04-23 09:51 | -40.13162 | 145.94421 | 31372 ft | 477 kts | 162° |
| 2026-04-23 09:51 | -40.19418 | 145.97330 | 31370 ft | 477 kts | 162° |
| 2026-04-23 09:52 | -40.25684 | 146.00245 | 31369 ft | 479 kts | 162° |
| 2026-04-23 09:52 | -40.31963 | 146.03176 | 31371 ft | 479 kts | 162° |
| 2026-04-23 09:52 | -40.35108 | 146.04644 | 31025 ft | 480 kts | 162° |
| 2026-04-23 09:53 | -40.38252 | 146.06112 | 30404 ft | 478 kts | 162° |
| 2026-04-23 09:53 | -40.41364 | 146.07572 | 29732 ft | 472 kts | 162° |
| 2026-04-23 09:53 | -40.44443 | 146.09014 | 29110 ft | 468 kts | 162° |
| 2026-04-23 09:53 | -40.47508 | 146.10449 | 28499 ft | 466 kts | 162° |
| 2026-04-23 09:54 | -40.50511 | 146.11859 | 27899 ft | 462 kts | 162° |
| 2026-04-23 09:54 | -40.53526 | 146.13279 | 27291 ft | 458 kts | 162° |
| 2026-04-23 09:54 | -40.56516 | 146.14683 | 26692 ft | 455 kts | 162° |
| 2026-04-23 09:54 | -40.59490 | 146.16081 | 26104 ft | 452 kts | 161° |
| 2026-04-23 09:55 | -40.62442 | 146.17475 | 25504 ft | 449 kts | 161° |
| 2026-04-23 09:55 | -40.65376 | 146.18857 | 24911 ft | 446 kts | 161° |
| 2026-04-23 09:55 | -40.68291 | 146.20233 | 24336 ft | 444 kts | 161° |
| 2026-04-23 09:55 | -40.71188 | 146.21604 | 23732 ft | 441 kts | 161° |
| 2026-04-23 09:56 | -40.74069 | 146.22966 | 23114 ft | 438 kts | 161° |
| 2026-04-23 09:56 | -40.76924 | 146.24316 | 22542 ft | 435 kts | 161° |
| 2026-04-23 09:56 | -40.79760 | 146.25662 | 21972 ft | 432 kts | 161° |
| 2026-04-23 09:56 | -40.82580 | 146.26999 | 21409 ft | 429 kts | 161° |
| 2026-04-23 09:57 | -40.85379 | 146.28326 | 20848 ft | 426 kts | 161° |
| 2026-04-23 09:57 | -40.88156 | 146.29648 | 20284 ft | 423 kts | 161° |
| 2026-04-23 09:57 | -40.90923 | 146.30963 | 19731 ft | 421 kts | 161° |
| 2026-04-23 09:57 | -40.93667 | 146.32267 | 19180 ft | 419 kts | 161° |
| 2026-04-23 09:58 | -40.96398 | 146.33571 | 18621 ft | 416 kts | 161° |
| 2026-04-23 09:58 | -40.99109 | 146.34864 | 18041 ft | 413 kts | 161° |
| 2026-04-23 09:58 | -41.01804 | 146.36147 | 17490 ft | 410 kts | 161° |
| 2026-04-23 09:58 | -41.04482 | 146.37429 | 16953 ft | 408 kts | 161° |
| 2026-04-23 09:59 | -41.07145 | 146.38702 | 16424 ft | 405 kts | 161° |
| 2026-04-23 09:59 | -41.09788 | 146.39965 | 15889 ft | 403 kts | 161° |
| 2026-04-23 09:59 | -41.12419 | 146.41227 | 15360 ft | 400 kts | 161° |
| 2026-04-23 09:59 | -41.14976 | 146.42652 | 14815 ft | 398 kts | 152° |
| 2026-04-23 10:00 | -41.17226 | 146.44802 | 14313 ft | 400 kts | 139° |
| 2026-04-23 10:00 | -41.19081 | 146.47532 | 13756 ft | 398 kts | 128° |
| 2026-04-23 10:00 | -41.20681 | 146.50524 | 13230 ft | 398 kts | 124° |
| 2026-04-23 10:00 | -41.22122 | 146.53647 | 12699 ft | 396 kts | 122° |
| 2026-04-23 10:01 | -41.23586 | 146.56735 | 12181 ft | 394 kts | 124° |
| 2026-04-23 10:01 | -41.25140 | 146.59724 | 11658 ft | 392 kts | 126° |
| 2026-04-23 10:01 | -41.26674 | 146.62714 | 11156 ft | 391 kts | 124° |
| 2026-04-23 10:01 | -41.28122 | 146.65698 | 10641 ft | 388 kts | 124° |
| 2026-04-23 10:02 | -41.29596 | 146.68717 | 9773 ft | 387 kts | 125° |
| 2026-04-23 10:02 | -41.31094 | 146.71690 | 9217 ft | 386 kts | 125° |
| 2026-04-23 10:02 | -41.32582 | 146.74668 | 8692 ft | 385 kts | 124° |
| 2026-04-23 10:02 | -41.34047 | 146.77650 | 8198 ft | 385 kts | 124° |
| 2026-04-23 10:03 | -41.35515 | 146.80610 | 7686 ft | 381 kts | 125° |
| 2026-04-23 10:03 | -41.36979 | 146.83544 | 7178 ft | 374 kts | 125° |
| 2026-04-23 10:03 | -41.38445 | 146.86490 | 6690 ft | 378 kts | 123° |
| 2026-04-23 10:03 | -41.39810 | 146.89342 | 6172 ft | 354 kts | 123° |
| 2026-04-23 10:04 | -41.41116 | 146.92000 | 5703 ft | 333 kts | 124° |
| 2026-04-23 10:04 | -41.42370 | 146.94499 | 5281 ft | 316 kts | 124° |
| 2026-04-23 10:04 | -41.43562 | 146.96892 | 4874 ft | 303 kts | 123° |
| 2026-04-23 10:04 | -41.44693 | 146.99196 | 4473 ft | 291 kts | 122° |
| 2026-04-23 10:05 | -41.45784 | 147.01433 | 4096 ft | 285 kts | 122° |
| 2026-04-23 10:05 | -41.46854 | 147.03616 | 3733 ft | 276 kts | 122° |
| 2026-04-23 10:05 | -41.47894 | 147.05724 | 3351 ft | 267 kts | 122° |
| 2026-04-23 10:05 | -41.48915 | 147.07750 | 3036 ft | 258 kts | 126° |
| 2026-04-23 10:06 | -41.50046 | 147.09500 | 2477 ft | 244 kts | 129° |
| 2026-04-23 10:06 | -41.51052 | 147.11231 | 2084 ft | 228 kts | 124° |
| 2026-04-23 10:06 | -41.51995 | 147.12960 | 1896 ft | 250 kts | 126° |
| 2026-04-23 10:06 | -41.53089 | 147.14906 | 1846 ft | 265 kts | 124° |
| 2026-04-23 10:07 | -41.54049 | 147.16873 | 1844 ft | 233 kts | 117° |
| 2026-04-23 10:07 | -41.54889 | 147.18258 | 2009 ft | 167 kts | 137° |
| 2026-04-23 10:07 | -41.55850 | 147.19083 | 1676 ft | 158 kts | 149° |
| 2026-04-23 10:07 | -41.56815 | 147.19776 | 1167 ft | 166 kts | 153° |
| 2026-04-23 10:08 | -41.57683 | 147.20689 | 1008 ft | 148 kts | 117° |
| 2026-04-23 10:08 | -41.57779 | 147.21944 | 825 ft | 143 kts | 62° |
| 2026-04-23 10:08 | -41.57215 | 147.23072 | 978 ft | 154 kts | 22° |
| 2026-04-23 10:09 | -41.55590 | 147.22032 | 689 ft | 116 kts | 328° |
| 2026-04-23 10:09 | -41.54975 | 147.21521 | 594 ft | 92 kts | 321° |
| 2026-04-23 10:09 | -41.54571 | 147.21156 | 596 ft | 46 kts | 328° |
| 2026-04-23 10:09 | -41.54380 | 147.20989 | 597 ft | 29 kts | 327° |
| 2026-04-23 10:10 | -41.54333 | 147.20949 | 596 ft | 29 kts | 327° |